Terminal Aerodrome Forecast
Issued by NWS

Home | Current Version | Previous Version | Text Only | Print | Product List | Glossary On
Versions: 1 2 3 4 5 6 7 8 9 10 11 12 13
000
FTUS46 KSGX 191143
TAFCRQ
TAF
KCRQ 191143Z 1912/2012 26012G20KT P6SM BKN035
     FM191700 27015G25KT P6SM SCT025 SCT035
     FM200200 28009KT P6SM SCT035
     FM200600 VRB04KT P6SM SKC=

USA.gov is the U.S. government's official web portal to all federal, state and local government web resources and services.